KPHF/PHF METAR and TAF weather

Enter ICAO airport designator
Station Type Date Time Source
KPHF METAR 2022/06/25 22:54 UTC NOAA

KPHF 252254Z 12007KT 10SM CLR 26/18 A3012 RMK AO2 SLP200 T02610178


Station Type Date Time Source
KPHF Decoded METAR 2022/06/25 22:54 UTC NOAA

WILLIAMSBURG INTERNATIONAL AIRPORT , VA, United States (KPHF) 37-08N 76-30W 12M
Jun 25, 2022 - 06:54 PM EDT / 2022.06.25 2254 UTC
Wind: from the ESE (120 degrees) at 8 MPH (7 KT):0
Visibility: 10 mile(s):0
Sky conditions: clear
Temperature: 79.0 F (26.1 C)
Dew Point: 64.0 F (17.8 C)
Relative Humidity: 60%
Pressure (altimeter): 30.12 in. Hg (1019 hPa)
ob: KPHF 252254Z 12007KT 10SM CLR 26/18 A3012 RMK AO2 SLP200 T02610178
cycle: 23

Station Type Date Time Source
KPHF TAF 2022/06/25 18:22 UTC NOAA

TAF KPHF 251720Z 2518/2618 11005KT P6SM SCT040
TEMPO 2518/2521 BKN040
FM260000 15006KT P6SM SKC
FM261300 19007KT P6SM FEW100

Example: see airport list